Key West Nas /Boca Chica Field/ Airport
KNQX : now visible

Airfield :











YOU CAN JOIN US ON...

 
LOGIN :

Register | Disclaimer

   EN    FR    IT 

 









Legend :    VFR   Marginal VFR   IFR   Intensive IFR   Very Intensive IFR
Visi :
Ceiling :
>= 8 km
>= 3000ft
5 to 8 km
1000 to 3000 ft
1500m to 5 km
500 to 1000 ft
800 to 1500m
200 to 500 ft
< 800m
< 200 ft
Symbols :   Thunderstorms  Fog  Heavy snow  Heavy precipitations  Wind > 20 kt







- Airport Elevation : 6 ft


KNQX - Key West Nas /Boca Chica Field/

CURRENT METAR :
  • 181053Z 06005KT 10SM FEW020 29/24 A2992 RMK AO2 SLP129 T02890244

EXPIRED METARs :
  • 181000Z 04006KT 10SM FEW020 29/25 A2990 RMK AO2 T02890250
  • 180953Z AUTO 05006KT 10SM CLR 29/25 A2990 RMK AO2 SLP124 T02890250
  • 180853Z AUTO 03008KT 10SM CLR 30/24 A2989 RMK AO2 SLP120 T03000239 55008

TAF TAF KNQX
Valid from the 17 at 23:00 until the 18 at 23:00 UTC


1723/1823 36012KT 9999 FEW020 SCT250 QNH2985INS
FM181200 03011KT 9999 FEW025 SCT250 QNH2983INS AUTOMATED SENSOR METWATCH 1802 TIL 1810 T28/1809Z T33/1819Z FN20056
No reported NOTAMs for that airfield.



MET'MAP, your aeronautical weather chart ! - Copyright ORBIFLY December 2007 - Disclaimer

ORBIFLY MET'MAP TEAM :

Programming & Development : Alexandra Zaïnal
Concept & Development : Baudouin d'Aumeries
Co-Development & Prog : Marc-Olivier Méhu
Technical & hardware support : Manuel Goepfert

Contact : metmap@orbifly.com




SOURCES & CREDITS :

   NOAA       Earth
Advisory